Time;durP1;ratioP1;P1;durP2;ratioP2;P2;SDS_P1;SDS_P2;PMS_P1;PMS_P2;Temp;Humidity;BMP_temperature;BMP_pressure;BME280_temperature;BME280_humidity;BME280_pressure;Samples;Min_cycle;Max_cycle;Signal;HPM_P1;HPM_P2
2022/08/26 00:00:55;;;;;;;;;;;18.20;99.90;;;;;;4145156;28;19925;-85
2022/08/26 00:02:57;;;;;;;;;;;18.20;99.90;;;;;;4177534;28;19928;-85
2022/08/26 00:05:00;;;;;;;;;;;18.20;99.90;;;;;;4165161;28;19979;-85
2022/08/26 00:07:02;;;;;;;;;;;18.10;99.90;;;;;;4177864;28;20024;-85
2022/08/26 00:09:04;;;;;;;;;;;18.20;99.90;;;;;;4167102;28;19931;-85
2022/08/26 00:11:08;;;;;;;;;;;18.00;99.90;;;;;;4170392;28;20416;-85
2022/08/26 00:13:10;;;;;;;;;;;18.00;99.90;;;;;;4161347;28;19925;-85
2022/08/26 00:15:14;;;;;;;;;;;18.00;99.90;;;;;;4179337;28;19925;-85
2022/08/26 00:17:17;;;;;;;;;;;18.00;99.90;;;;;;4178910;28;19925;-85
2022/08/26 00:19:19;;;;;;;;;;;18.00;99.90;;;;;;4161659;28;19983;-85
2022/08/26 00:21:21;;;;;;;;;;;18.10;99.90;;;;;;4178026;28;19936;-85
2022/08/26 00:23:23;;;;;;;;;;;18.10;99.90;;;;;;4178117;28;19935;-85
2022/08/26 00:25:27;;;;;;;;;;;18.00;99.90;;;;;;4177753;28;19935;-85
2022/08/26 00:27:32;;;;;;;;;;;17.80;99.90;;;;;;4178218;28;20404;-85
2022/08/26 00:29:35;;;;;;;;;;;17.80;99.90;;;;;;4177964;28;19967;-85
2022/08/26 00:31:38;;;;;;;;;;;17.90;99.90;;;;;;4177877;28;19924;-85
2022/08/26 00:33:40;;;;;;;;;;;17.90;99.90;;;;;;4161091;28;19937;-85
2022/08/26 00:35:43;;;;;;;;;;;17.80;99.90;;;;;;4177460;28;20399;-85
2022/08/26 00:37:46;;;;;;;;;;;17.80;99.90;;;;;;4177212;28;19928;-85
2022/08/26 00:39:47;;;;;;;;;;;17.90;99.90;;;;;;4177766;28;19929;-85
2022/08/26 00:41:49;;;;;;;;;;;17.90;99.90;;;;;;4178874;28;19929;-85
2022/08/26 00:43:52;;;;;;;;;;;17.80;99.90;;;;;;4161235;28;20396;-85
2022/08/26 00:45:56;;;;;;;;;;;17.80;99.90;;;;;;4178817;28;19924;-85
2022/08/26 00:48:02;;;;;;;;;;;17.80;99.90;;;;;;4166089;28;20019;-85
2022/08/26 00:50:07;;;;;;;;;;;17.80;99.90;;;;;;4168432;28;20016;-85
2022/08/26 00:52:13;;;;;;;;;;;17.70;99.90;;;;;;4178208;28;20019;-85
2022/08/26 00:54:16;;;;;;;;;;;17.70;99.90;;;;;;4177686;28;19935;-85
2022/08/26 00:56:30;;;;;;;;;;;17.60;99.90;;;;;;4177126;28;19928;-85
2022/08/26 00:58:35;;;;;;;;;;;17.50;99.90;;;;;;4177440;28;19928;-85
2022/08/26 01:00:37;;;;;;;;;;;17.50;99.90;;;;;;4177715;28;19971;-85
2022/08/26 01:02:40;;;;;;;;;;;17.60;99.90;;;;;;4177344;28;20365;-85
2022/08/26 01:04:52;;;;;;;;;;;17.50;99.90;;;;;;4177554;28;19929;-85
2022/08/26 01:06:58;;;;;;;;;;;17.40;99.90;;;;;;4178616;28;19929;-85
2022/08/26 01:09:00;;;;;;;;;;;17.40;99.90;;;;;;4177993;28;19931;-85
2022/08/26 01:11:03;;;;;;;;;;;17.30;99.90;;;;;;4177701;28;19929;-85
2022/08/26 01:13:08;;;;;;;;;;;17.20;99.90;;;;;;4161058;28;20292;-85
2022/08/26 01:15:14;;;;;;;;;;;17.20;99.90;;;;;;4179838;28;19978;-85
2022/08/26 01:17:16;;;;;;;;;;;17.20;99.90;;;;;;4180479;28;19932;-85
2022/08/26 01:19:21;;;;;;;;;;;17.10;99.90;;;;;;4181550;28;19924;-85
2022/08/26 01:21:42;;;;;;;;;;;17.20;99.90;;;;;;4180240;28;19928;-85
2022/08/26 01:23:46;;;;;;;;;;;17.20;99.90;;;;;;4180490;28;20016;-85
2022/08/26 01:25:50;;;;;;;;;;;17.30;99.90;;;;;;4162067;28;19932;-85
2022/08/26 01:27:56;;;;;;;;;;;17.30;99.90;;;;;;4167361;28;19951;-85
2022/08/26 01:29:59;;;;;;;;;;;17.20;99.90;;;;;;4186137;28;19931;-85
2022/08/26 01:32:02;;;;;;;;;;;17.30;99.90;;;;;;4179742;28;19928;-85
2022/08/26 01:34:15;;;;;;;;;;;17.20;99.90;;;;;;4179980;28;20415;-85
2022/08/26 01:36:17;;;;;;;;;;;17.20;99.90;;;;;;4181341;28;19935;-85
2022/08/26 01:38:19;;;;;;;;;;;17.30;99.90;;;;;;4181315;28;19929;-85
2022/08/26 01:40:24;;;;;;;;;;;17.40;99.90;;;;;;4181308;28;19929;-85
2022/08/26 01:42:27;;;;;;;;;;;17.30;99.90;;;;;;4180382;28;19925;-85
2022/08/26 01:44:31;;;;;;;;;;;17.40;99.90;;;;;;4163660;28;19929;-85
2022/08/26 01:46:34;;;;;;;;;;;17.40;99.90;;;;;;4165143;28;20375;-85
2022/08/26 01:48:37;;;;;;;;;;;17.30;99.90;;;;;;4163597;28;19925;-85
2022/08/26 01:50:41;;;;;;;;;;;17.20;99.90;;;;;;4179955;28;20015;-85
2022/08/26 01:52:45;;;;;;;;;;;17.20;99.90;;;;;;4163614;28;19955;-85
2022/08/26 01:54:54;;;;;;;;;;;17.30;99.90;;;;;;4179698;28;19946;-85
2022/08/26 01:56:57;;;;;;;;;;;17.30;99.90;;;;;;4179873;28;19929;-85
2022/08/26 01:59:01;;;;;;;;;;;17.20;99.90;;;;;;4162936;28;19929;-84
2022/08/26 02:01:04;;;;;;;;;;;17.20;99.90;;;;;;4180868;28;19928;-85
2022/08/26 02:03:15;;;;;;;;;;;17.20;99.90;;;;;;4179753;28;20031;-85
2022/08/26 02:05:19;;;;;;;;;;;17.00;99.90;;;;;;4179423;28;19975;-85
2022/08/26 02:07:22;;;;;;;;;;;17.00;99.90;;;;;;4212324;28;19924;-85
2022/08/26 02:09:25;;;;;;;;;;;16.90;99.90;;;;;;4179693;28;19932;-85
2022/08/26 02:11:27;;;;;;;;;;;16.80;99.90;;;;;;4178805;28;20378;-85
2022/08/26 02:13:30;;;;;;;;;;;16.80;99.90;;;;;;4163096;28;19976;-85
2022/08/26 02:15:33;;;;;;;;;;;16.80;99.90;;;;;;4196023;28;20467;-85
2022/08/26 02:17:38;;;;;;;;;;;16.90;99.90;;;;;;4180833;28;19955;-85
2022/08/26 02:19:44;;;;;;;;;;;16.90;99.90;;;;;;4169320;28;19949;-85
2022/08/26 02:21:47;;;;;;;;;;;16.80;99.90;;;;;;4162873;28;19933;-85
2022/08/26 02:23:53;;;;;;;;;;;16.80;99.90;;;;;;4179879;28;20003;-85
2022/08/26 02:25:57;;;;;;;;;;;16.90;99.90;;;;;;4162362;28;19936;-85
2022/08/26 02:28:00;;;;;;;;;;;16.90;99.90;;;;;;4164110;28;19933;-85
2022/08/26 02:30:14;;;;;;;;;;;16.90;99.90;;;;;;4162948;28;20364;-85
2022/08/26 02:32:16;;;;;;;;;;;16.90;99.90;;;;;;4146325;28;20348;-85
2022/08/26 02:34:20;;;;;;;;;;;16.90;99.90;;;;;;4178679;28;19925;-85
2022/08/26 02:36:24;;;;;;;;;;;16.90;99.90;;;;;;4178584;28;19971;-85
2022/08/26 02:38:29;;;;;;;;;;;16.90;99.90;;;;;;4172520;28;19933;-86
2022/08/26 02:40:33;;;;;;;;;;;16.80;99.90;;;;;;4146479;28;19925;-85
2022/08/26 02:42:35;;;;;;;;;;;16.70;99.90;;;;;;4176696;28;19935;-85
2022/08/26 02:44:38;;;;;;;;;;;16.60;99.90;;;;;;4162815;28;19972;-85
2022/08/26 02:46:41;;;;;;;;;;;16.60;99.90;;;;;;4160615;28;20429;-85
2022/08/26 02:48:48;;;;;;;;;;;16.60;99.90;;;;;;4192030;28;20366;-86
2022/08/26 02:50:50;;;;;;;;;;;16.70;99.90;;;;;;4176802;28;19932;-86
2022/08/26 02:52:52;;;;;;;;;;;16.60;99.90;;;;;;4162155;28;20324;-85
2022/08/26 02:54:54;;;;;;;;;;;16.50;99.90;;;;;;4173006;28;19925;-85
2022/08/26 02:56:56;;;;;;;;;;;16.40;99.90;;;;;;4178789;28;19936;-85
2022/08/26 02:58:58;;;;;;;;;;;16.40;99.90;;;;;;4178859;28;19928;-85
2022/08/26 03:01:00;;;;;;;;;;;16.50;99.90;;;;;;4178935;28;20474;-85
2022/08/26 03:03:04;;;;;;;;;;;16.50;99.90;;;;;;4162202;28;20019;-86
2022/08/26 03:05:06;;;;;;;;;;;16.50;99.90;;;;;;4163078;28;19925;-86
2022/08/26 03:07:08;;;;;;;;;;;16.50;99.90;;;;;;4185276;28;19924;-85
2022/08/26 03:09:10;;;;;;;;;;;16.50;99.90;;;;;;4162483;28;19948;-85
2022/08/26 03:11:12;;;;;;;;;;;16.40;99.90;;;;;;4189945;28;19924;-85
2022/08/26 03:13:14;;;;;;;;;;;16.40;99.90;;;;;;4195118;28;19931;-85
2022/08/26 03:15:17;;;;;;;;;;;16.50;99.90;;;;;;4178837;28;19936;-85
2022/08/26 03:17:19;;;;;;;;;;;16.50;99.90;;;;;;4155660;28;19925;-85
2022/08/26 03:19:22;;;;;;;;;;;16.60;99.90;;;;;;4164021;28;20023;-85
2022/08/26 03:21:24;;;;;;;;;;;16.50;99.90;;;;;;4177795;28;20096;-85
2022/08/26 03:23:27;;;;;;;;;;;16.60;99.90;;;;;;4196307;28;20794;-85
2022/08/26 03:25:29;;;;;;;;;;;16.50;99.90;;;;;;4195234;28;20347;-85
2022/08/26 03:27:31;;;;;;;;;;;16.50;99.90;;;;;;4177684;28;19978;-85
2022/08/26 03:31:54;;;;;;;;;;;16.50;99.90;;;;;;4196135;28;19928;-85
2022/08/26 03:33:56;;;;;;;;;;;16.50;99.90;;;;;;4211555;28;19994;-85
2022/08/26 03:36:02;;;;;;;;;;;16.50;99.90;;;;;;4194987;28;19933;-85
2022/08/26 03:38:07;;;;;;;;;;;16.50;99.90;;;;;;4195608;28;19929;-85
2022/08/26 03:40:10;;;;;;;;;;;16.50;99.90;;;;;;4162053;28;19972;-85
2022/08/26 03:42:13;;;;;;;;;;;16.50;99.90;;;;;;4211635;28;19928;-85
2022/08/26 03:44:15;;;;;;;;;;;16.50;99.90;;;;;;4161818;28;20024;-85
2022/08/26 03:46:19;;;;;;;;;;;16.50;99.90;;;;;;4211287;28;20427;-85
2022/08/26 03:48:21;;;;;;;;;;;16.50;99.90;;;;;;4194701;28;19970;-85
2022/08/26 03:50:23;;;;;;;;;;;16.50;99.90;;;;;;4196118;28;20308;-85
2022/08/26 03:52:25;;;;;;;;;;;16.50;99.90;;;;;;4196050;28;20011;-85
2022/08/26 03:54:28;;;;;;;;;;;16.50;99.90;;;;;;4195673;28;20352;-85
2022/08/26 03:56:32;;;;;;;;;;;16.40;99.90;;;;;;4194695;28;20331;-85
2022/08/26 03:58:34;;;;;;;;;;;16.40;99.90;;;;;;4178147;28;19936;-85
2022/08/26 04:00:36;;;;;;;;;;;16.50;99.90;;;;;;4178155;28;19928;-85
2022/08/26 04:02:39;;;;;;;;;;;16.20;99.90;;;;;;4177989;28;19932;-85
2022/08/26 04:04:41;;;;;;;;;;;16.20;99.90;;;;;;4196094;28;19932;-85
2022/08/26 04:06:43;;;;;;;;;;;16.10;99.90;;;;;;4178099;28;19960;-85
2022/08/26 04:08:45;;;;;;;;;;;16.10;99.90;;;;;;4195465;28;19932;-85
2022/08/26 04:10:47;;;;;;;;;;;16.20;99.90;;;;;;4211218;28;20265;-85
2022/08/26 04:12:51;;;;;;;;;;;16.20;99.90;;;;;;4161006;28;19929;-85
2022/08/26 04:14:53;;;;;;;;;;;16.20;99.90;;;;;;4174372;28;19925;-85
2022/08/26 04:16:55;;;;;;;;;;;16.30;99.90;;;;;;4177717;28;19925;-85
2022/08/26 04:18:58;;;;;;;;;;;16.30;99.90;;;;;;4177918;28;19928;-85
2022/08/26 04:21:00;;;;;;;;;;;16.20;99.90;;;;;;4195121;28;19986;-84
2022/08/26 04:23:03;;;;;;;;;;;16.20;99.90;;;;;;4177838;28;19932;-85
2022/08/26 04:25:05;;;;;;;;;;;16.10;99.90;;;;;;4197209;28;19933;-84
2022/08/26 04:27:09;;;;;;;;;;;16.10;99.90;;;;;;4195714;28;19951;-85
2022/08/26 04:29:13;;;;;;;;;;;16.10;99.90;;;;;;4189268;28;20406;-84
2022/08/26 04:31:16;;;;;;;;;;;16.10;99.90;;;;;;4160419;28;19929;-84
2022/08/26 04:33:20;;;;;;;;;;;16.20;99.90;;;;;;4168232;28;20293;-85
2022/08/26 04:35:35;;;;;;;;;;;16.10;99.90;;;;;;4177877;28;20400;-85
2022/08/26 04:37:37;;;;;;;;;;;16.00;99.90;;;;;;4211056;28;20359;-85
2022/08/26 04:39:40;;;;;;;;;;;15.90;99.90;;;;;;4177764;28;19931;-85
2022/08/26 04:41:43;;;;;;;;;;;15.90;99.90;;;;;;4194496;28;19932;-85
2022/08/26 04:43:46;;;;;;;;;;;16.00;99.90;;;;;;4161023;28;20776;-86
2022/08/26 04:45:48;;;;;;;;;;;16.00;99.90;;;;;;4177738;28;19925;-86
2022/08/26 04:47:55;;;;;;;;;;;16.10;99.90;;;;;;4166446;28;19928;-86
2022/08/26 04:49:57;;;;;;;;;;;15.90;99.90;;;;;;4175649;28;19947;-86
2022/08/26 04:51:59;;;;;;;;;;;16.00;99.90;;;;;;4198691;28;19978;-86
2022/08/26 04:54:01;;;;;;;;;;;16.00;99.90;;;;;;4180995;28;19929;-86
2022/08/26 04:56:03;;;;;;;;;;;16.00;99.90;;;;;;4153930;28;19985;-86
2022/08/26 04:58:07;;;;;;;;;;;16.00;99.90;;;;;;4193410;28;19929;-86
2022/08/26 05:00:12;;;;;;;;;;;16.00;99.90;;;;;;4180432;28;19933;-85
2022/08/26 05:02:15;;;;;;;;;;;16.00;99.90;;;;;;4180387;28;19933;-85
2022/08/26 05:04:18;;;;;;;;;;;16.00;99.90;;;;;;4166554;28;20340;-85
2022/08/26 05:06:21;;;;;;;;;;;16.00;99.90;;;;;;4198504;28;19939;-85
2022/08/26 05:08:23;;;;;;;;;;;15.90;99.90;;;;;;4214038;28;20014;-85
2022/08/26 05:10:25;;;;;;;;;;;15.90;99.90;;;;;;4152732;28;19933;-85
2022/08/26 05:12:28;;;;;;;;;;;15.80;99.90;;;;;;4180224;28;20337;-85
2022/08/26 05:14:30;;;;;;;;;;;15.80;99.90;;;;;;4193522;28;20019;-84
2022/08/26 05:16:33;;;;;;;;;;;15.90;99.90;;;;;;4163820;28;20412;-86
2022/08/26 05:18:37;;;;;;;;;;;16.10;99.90;;;;;;4182866;28;20361;-86
2022/08/26 05:20:41;;;;;;;;;;;16.20;99.90;;;;;;4196935;28;19971;-85
2022/08/26 05:22:44;;;;;;;;;;;16.30;99.90;;;;;;4180524;28;20858;-85
2022/08/26 05:24:46;;;;;;;;;;;16.30;99.90;;;;;;4163096;28;19929;-84
2022/08/26 05:26:48;;;;;;;;;;;16.40;99.90;;;;;;4195939;28;19990;-85
2022/08/26 05:28:52;;;;;;;;;;;16.30;99.90;;;;;;4181168;28;19936;-85
2022/08/26 05:30:56;;;;;;;;;;;16.30;99.90;;;;;;4162875;28;20310;-84
2022/08/26 05:33:00;;;;;;;;;;;16.40;99.90;;;;;;4196477;28;19967;-85
2022/08/26 05:35:03;;;;;;;;;;;16.40;99.90;;;;;;4162786;28;19925;-85
2022/08/26 05:37:05;;;;;;;;;;;16.50;99.90;;;;;;4208027;28;20043;-85
2022/08/26 05:39:08;;;;;;;;;;;16.50;99.90;;;;;;4171328;28;19959;-85
2022/08/26 05:41:16;;;;;;;;;;;16.50;99.90;;;;;;4195380;28;20562;-84
2022/08/26 05:43:18;;;;;;;;;;;16.60;99.90;;;;;;4184064;28;19928;-84
2022/08/26 05:45:23;;;;;;;;;;;16.50;99.90;;;;;;4197834;28;19928;-84
2022/08/26 05:47:26;;;;;;;;;;;16.40;99.90;;;;;;4197378;28;19974;-85
2022/08/26 05:49:28;;;;;;;;;;;16.40;99.90;;;;;;4179930;28;19983;-85
2022/08/26 05:51:32;;;;;;;;;;;16.40;99.90;;;;;;4213332;28;20456;-85
2022/08/26 05:53:35;;;;;;;;;;;16.40;99.90;;;;;;4180002;28;19928;-85
2022/08/26 05:55:44;;;;;;;;;;;16.40;99.90;;;;;;4197538;28;19931;-85
2022/08/26 05:57:47;;;;;;;;;;;16.50;99.90;;;;;;4180048;28;19924;-85
2022/08/26 05:59:50;;;;;;;;;;;16.60;99.90;;;;;;4213343;28;19924;-85
2022/08/26 06:01:53;;;;;;;;;;;16.60;99.90;;;;;;4196797;28;19974;-85
2022/08/26 06:04:00;;;;;;;;;;;16.60;99.90;;;;;;4179658;28;20471;-85
2022/08/26 06:06:03;;;;;;;;;;;16.60;99.90;;;;;;4179474;28;19925;-85
2022/08/26 06:08:17;;;;;;;;;;;17.00;99.90;;;;;;4196114;28;20763;-85
2022/08/26 06:10:19;;;;;;;;;;;17.10;99.90;;;;;;4179332;28;20015;-84
2022/08/26 06:12:32;;;;;;;;;;;17.40;99.90;;;;;;4157462;28;19925;-84
2022/08/26 06:14:34;;;;;;;;;;;17.60;99.90;;;;;;4179480;28;19984;-84
2022/08/26 06:16:39;;;;;;;;;;;17.80;99.90;;;;;;4206638;28;20345;-84
2022/08/26 06:18:42;;;;;;;;;;;17.90;99.90;;;;;;4196952;28;19947;-84
2022/08/26 06:20:45;;;;;;;;;;;18.00;99.90;;;;;;4163041;28;19960;-84
2022/08/26 06:25:38;;;;;;;;;;;18.30;99.90;;;;;;4197182;28;20396;-85
2022/08/26 06:27:43;;;;;;;;;;;18.50;99.90;;;;;;4197016;28;19925;-85
2022/08/26 06:29:45;;;;;;;;;;;18.60;99.90;;;;;;4190497;28;19936;-85
2022/08/26 06:31:48;;;;;;;;;;;18.70;99.90;;;;;;4191242;28;19924;-85
2022/08/26 06:33:51;;;;;;;;;;;18.90;99.90;;;;;;4211630;28;19932;-85
2022/08/26 06:35:53;;;;;;;;;;;19.00;99.90;;;;;;4197222;28;19924;-85
2022/08/26 06:37:55;;;;;;;;;;;19.30;99.90;;;;;;4178345;28;19929;-81
2022/08/26 06:39:57;;;;;;;;;;;19.60;99.90;;;;;;4195946;28;19971;-81
2022/08/26 06:42:00;;;;;;;;;;;19.80;99.90;;;;;;4178423;28;19928;-81
2022/08/26 06:44:02;;;;;;;;;;;20.10;99.90;;;;;;4178458;28;19925;-81
2022/08/26 06:46:06;;;;;;;;;;;20.20;99.90;;;;;;4196449;28;19970;-81
2022/08/26 06:48:08;;;;;;;;;;;20.30;99.90;;;;;;4195940;28;19972;-80
2022/08/26 06:50:10;;;;;;;;;;;20.50;99.90;;;;;;4211541;28;20016;-81
2022/08/26 06:52:12;;;;;;;;;;;20.60;99.90;;;;;;4196456;28;19973;-81
2022/08/26 06:54:14;;;;;;;;;;;20.70;99.90;;;;;;4195863;28;20218;-81
2022/08/26 06:56:18;;;;;;;;;;;20.80;99.90;;;;;;4196190;28;19934;-81
2022/08/26 06:58:20;;;;;;;;;;;21.00;99.90;;;;;;4178692;28;19928;-81
2022/08/26 07:00:23;;;;;;;;;;;21.30;99.90;;;;;;4195647;28;19963;-81
2022/08/26 07:02:25;;;;;;;;;;;21.50;99.90;;;;;;4195868;28;20422;-81
2022/08/26 07:04:29;;;;;;;;;;;21.60;99.90;;;;;;4196054;28;20261;-81
2022/08/26 07:06:35;;;;;;;;;;;21.70;99.90;;;;;;4195943;28;19928;-80
2022/08/26 07:08:37;;;;;;;;;;;21.80;99.90;;;;;;4196104;28;19975;-81
2022/08/26 07:10:38;;;;;;;;;;;22.00;99.90;;;;;;4195605;28;19925;-81
2022/08/26 07:12:41;;;;;;;;;;;22.10;99.90;;;;;;4176923;28;20127;-80
2022/08/26 07:14:43;;;;;;;;;;;22.30;99.90;;;;;;4195805;28;20367;-81
2022/08/26 07:16:48;;;;;;;;;;;22.40;99.90;;;;;;4195772;28;19931;-81
2022/08/26 07:18:52;;;;;;;;;;;22.50;99.90;;;;;;4178028;28;19964;-81
2022/08/26 07:20:54;;;;;;;;;;;22.80;99.90;;;;;;4178063;28;19963;-81
2022/08/26 07:22:57;;;;;;;;;;;22.80;99.90;;;;;;4195663;28;20735;-81
2022/08/26 07:24:59;;;;;;;;;;;23.10;99.90;;;;;;4195600;28;19932;-81
2022/08/26 07:27:03;;;;;;;;;;;23.20;99.90;;;;;;4195618;28;19978;-81
2022/08/26 07:29:06;;;;;;;;;;;23.50;99.90;;;;;;4195421;28;19928;-81
2022/08/26 07:31:09;;;;;;;;;;;23.60;99.90;;;;;;4195700;28;19932;-81
2022/08/26 07:33:10;;;;;;;;;;;23.70;99.90;;;;;;4194717;28;19939;-81
2022/08/26 07:35:12;;;;;;;;;;;23.80;99.90;;;;;;4177757;28;20011;-81
2022/08/26 07:37:14;;;;;;;;;;;24.00;99.90;;;;;;4195217;28;19929;-81
2022/08/26 07:39:18;;;;;;;;;;;24.30;99.90;;;;;;4194293;28;19924;-81
2022/08/26 07:41:22;;;;;;;;;;;24.30;99.90;;;;;;4195258;28;19933;-81
2022/08/26 07:43:23;;;;;;;;;;;24.50;99.90;;;;;;4195514;28;19929;-81
2022/08/26 07:45:26;;;;;;;;;;;24.60;99.90;;;;;;4194404;28;20014;-81
2022/08/26 07:47:28;;;;;;;;;;;24.80;99.90;;;;;;4195229;28;19928;-81
2022/08/26 07:49:30;;;;;;;;;;;24.90;99.90;;;;;;4177670;28;19924;-81
2022/08/26 07:51:32;;;;;;;;;;;25.00;99.90;;;;;;4195480;28;20381;-81
2022/08/26 07:53:34;;;;;;;;;;;25.10;99.90;;;;;;4195306;28;19967;-80
2022/08/26 07:55:36;;;;;;;;;;;25.20;99.90;;;;;;4177803;28;19925;-81
2022/08/26 07:57:38;;;;;;;;;;;25.30;99.90;;;;;;4195321;28;19928;-81
2022/08/26 07:59:40;;;;;;;;;;;25.50;99.90;;;;;;4195091;28;19925;-80
2022/08/26 08:01:43;;;;;;;;;;;25.60;99.90;;;;;;4177484;28;19929;-79
2022/08/26 08:03:46;;;;;;;;;;;25.70;99.90;;;;;;4195183;28;20331;-80
2022/08/26 08:05:48;;;;;;;;;;;25.90;99.90;;;;;;4195263;28;19931;-79
2022/08/26 08:07:51;;;;;;;;;;;26.20;99.90;;;;;;4177084;28;19928;-80
2022/08/26 08:09:54;;;;;;;;;;;26.30;99.90;;;;;;4195072;28;19971;-80
2022/08/26 08:11:56;;;;;;;;;;;26.40;99.90;;;;;;4195077;28;20428;-81
2022/08/26 08:13:59;;;;;;;;;;;26.50;99.90;;;;;;4195142;28;20299;-80
2022/08/26 08:16:01;;;;;;;;;;;26.50;99.90;;;;;;4193546;28;20039;-81
2022/08/26 08:18:05;;;;;;;;;;;26.70;99.90;;;;;;4195304;28;20387;-80
2022/08/26 08:20:08;;;;;;;;;;;27.00;99.90;;;;;;4176943;28;20023;-80
2022/08/26 08:22:10;;;;;;;;;;;27.20;99.90;;;;;;4195125;28;19924;-80
2022/08/26 08:24:18;;;;;;;;;;;27.30;99.90;;;;;;4178724;28;20011;-81
2022/08/26 08:26:21;;;;;;;;;;;27.50;99.90;;;;;;4180652;28;20397;-81
2022/08/26 08:28:23;;;;;;;;;;;27.80;99.90;;;;;;4180770;28;19936;-81
2022/08/26 08:30:27;;;;;;;;;;;28.10;99.90;;;;;;4181034;28;20361;-81
2022/08/26 08:32:29;;;;;;;;;;;28.20;99.90;;;;;;4197973;28;19955;-81
2022/08/26 08:34:31;;;;;;;;;;;28.30;99.90;;;;;;4198276;28;19929;-81
2022/08/26 08:36:33;;;;;;;;;;;28.40;99.90;;;;;;4180407;28;19932;-81
2022/08/26 08:38:36;;;;;;;;;;;28.60;99.90;;;;;;4198050;28;20011;-82
2022/08/26 08:40:40;;;;;;;;;;;28.70;99.90;;;;;;4180587;28;19925;-81
2022/08/26 08:42:47;;;;;;;;;;;28.50;99.90;;;;;;4179978;28;19935;-82
2022/08/26 08:44:51;;;;;;;;;;;28.70;99.90;;;;;;4198046;28;20384;-81
2022/08/26 08:46:56;;;;;;;;;;;29.10;99.90;;;;;;4180090;28;19972;-81
2022/08/26 08:48:58;;;;;;;;;;;29.10;99.90;;;;;;4180144;28;20035;-81
2022/08/26 08:51:03;;;;;;;;;;;29.30;99.90;;;;;;4180239;28;19925;-81
2022/08/26 08:53:11;;;;;;;;;;;29.20;99.90;;;;;;4198084;28;20384;-81
2022/08/26 08:55:14;;;;;;;;;;;29.20;99.90;;;;;;4180052;28;19931;-81
2022/08/26 08:57:39;;;;;;;;;;;28.80;99.90;;;;;;4198035;28;20331;-81
2022/08/26 08:59:49;;;;;;;;;;;29.40;99.90;;;;;;4166437;28;19935;-81
2022/08/26 09:02:01;;;;;;;;;;;29.70;99.50;;;;;;4194390;28;19925;-81
2022/08/26 09:04:27;;;;;;;;;;;29.70;99.90;;;;;;4179570;28;19963;-81
2022/08/26 09:06:29;;;;;;;;;;;29.60;99.20;;;;;;4197556;28;19926;-81
2022/08/26 09:08:34;;;;;;;;;;;29.50;99.90;;;;;;4179882;28;19936;-81
2022/08/26 09:10:36;;;;;;;;;;;29.90;99.90;;;;;;4196909;28;20576;-82
2022/08/26 09:12:38;;;;;;;;;;;30.20;99.90;;;;;;4197622;28;19951;-81
2022/08/26 09:14:41;;;;;;;;;;;30.10;98.30;;;;;;4196181;28;19928;-81
2022/08/26 09:17:03;;;;;;;;;;;30.40;99.70;;;;;;4179721;28;19936;-82
2022/08/26 09:19:11;;;;;;;;;;;30.70;99.00;;;;;;4197843;28;19981;-81
2022/08/26 09:21:15;;;;;;;;;;;30.00;98.30;;;;;;4197457;28;19925;-81
2022/08/26 09:23:18;;;;;;;;;;;29.70;97.30;;;;;;4196448;28;19935;-81
2022/08/26 09:25:20;;;;;;;;;;;29.50;98.00;;;;;;4196970;28;19930;-81
2022/08/26 09:27:45;;;;;;;;;;;29.50;98.50;;;;;;4197445;28;19928;-81
2022/08/26 09:29:47;;;;;;;;;;;29.50;99.20;;;;;;4174518;28;19929;-81
2022/08/26 09:32:11;;;;;;;;;;;29.40;98.20;;;;;;4179723;28;19975;-81
2022/08/26 09:34:21;;;;;;;;;;;29.40;98.90;;;;;;4196823;28;20584;-81
2022/08/26 09:36:34;;;;;;;;;;;29.40;98.70;;;;;;4195955;28;19928;-81
2022/08/26 09:38:41;;;;;;;;;;;29.30;98.30;;;;;;4179961;28;19932;-81
2022/08/26 09:40:52;;;;;;;;;;;29.00;98.40;;;;;;4196065;28;20468;-80
2022/08/26 09:43:18;;;;;;;;;;;28.80;98.30;;;;;;4196760;28;19993;-80
2022/08/26 09:45:27;;;;;;;;;;;28.70;98.70;;;;;;4196827;28;19960;-80
2022/08/26 09:47:31;;;;;;;;;;;28.70;98.40;;;;;;4196311;28;19964;-80
2022/08/26 09:49:33;;;;;;;;;;;28.50;98.90;;;;;;4197204;28;19985;-81
2022/08/26 09:51:37;;;;;;;;;;;28.30;99.60;;;;;;4197917;28;20367;-81
2022/08/26 09:53:50;;;;;;;;;;;28.30;99.20;;;;;;4179127;28;19956;-81
2022/08/26 09:56:09;;;;;;;;;;;28.20;99.60;;;;;;4197876;28;19936;-81
2022/08/26 09:58:13;;;;;;;;;;;28.30;99.30;;;;;;4181294;28;20415;-81
2022/08/26 10:00:23;;;;;;;;;;;28.80;99.60;;;;;;4179320;28;19928;-82
2022/08/26 10:02:31;;;;;;;;;;;29.20;99.70;;;;;;4196377;28;19968;-82
2022/08/26 10:04:33;;;;;;;;;;;29.50;97.50;;;;;;4179077;28;19929;-81
2022/08/26 10:06:38;;;;;;;;;;;29.70;99.30;;;;;;4197099;28;20475;-82
2022/08/26 10:08:40;;;;;;;;;;;30.00;99.10;;;;;;4196211;28;19932;-82
2022/08/26 10:10:43;;;;;;;;;;;30.30;99.40;;;;;;4198948;28;19932;-82
2022/08/26 10:12:52;;;;;;;;;;;30.60;97.60;;;;;;4198682;28;19928;-82
2022/08/26 10:14:58;;;;;;;;;;;30.90;98.10;;;;;;4195825;28;19935;-82
2022/08/26 10:17:18;;;;;;;;;;;30.90;96.50;;;;;;4198740;28;19928;-82
2022/08/26 10:19:43;;;;;;;;;;;31.10;96.70;;;;;;4197782;28;19929;-82
2022/08/26 10:22:00;;;;;;;;;;;31.20;96.10;;;;;;4188515;28;19928;-82
2022/08/26 10:24:02;;;;;;;;;;;31.40;95.50;;;;;;4193667;28;19943;-82
2022/08/26 10:26:08;;;;;;;;;;;31.50;95.30;;;;;;4200277;28;19931;-82
2022/08/26 10:28:28;;;;;;;;;;;31.30;94.50;;;;;;4196616;28;19935;-82
2022/08/26 10:30:33;;;;;;;;;;;31.10;95.20;;;;;;4198909;28;19931;-81
2022/08/26 10:32:37;;;;;;;;;;;30.80;95.40;;;;;;4181651;28;19974;-81
2022/08/26 10:34:41;;;;;;;;;;;30.90;96.50;;;;;;4195536;28;19925;-81
2022/08/26 10:36:56;;;;;;;;;;;31.50;95.80;;;;;;4176990;28;20420;-81
2022/08/26 10:39:27;;;;;;;;;;;31.90;94.60;;;;;;4180019;28;19924;-81
2022/08/26 10:41:32;;;;;;;;;;;32.30;95.10;;;;;;4194531;28;19973;-81
2022/08/26 10:43:54;;;;;;;;;;;31.70;94.10;;;;;;4178812;28;19943;-81
2022/08/26 10:45:59;;;;;;;;;;;31.00;94.80;;;;;;4169724;28;19929;-81
2022/08/26 10:48:05;;;;;;;;;;;30.80;95.50;;;;;;4195415;28;19951;-81
2022/08/26 10:50:07;;;;;;;;;;;30.50;95.90;;;;;;4161365;28;20412;-81
2022/08/26 10:52:19;;;;;;;;;;;30.30;95.30;;;;;;4187360;28;20456;-81
2022/08/26 10:54:32;;;;;;;;;;;30.30;96.00;;;;;;4187682;28;19967;-80
2022/08/26 10:56:34;;;;;;;;;;;30.40;96.20;;;;;;4162480;28;20449;-81
2022/08/26 10:58:39;;;;;;;;;;;30.50;96.20;;;;;;4180980;28;20019;-81
2022/08/26 11:03:11;;;;;;;;;;;30.30;96.80;;;;;;4188459;28;19925;-80
2022/08/26 11:05:23;;;;;;;;;;;30.00;96.30;;;;;;4197359;28;19974;-80
2022/08/26 11:07:29;;;;;;;;;;;30.00;96.70;;;;;;4182566;28;19964;-81
2022/08/26 11:09:49;;;;;;;;;;;29.80;96.40;;;;;;4181766;28;19980;-81
2022/08/26 11:11:50;;;;;;;;;;;29.80;96.30;;;;;;4177838;28;20011;-82
2022/08/26 11:13:55;;;;;;;;;;;29.70;96.70;;;;;;4189226;28;19994;-81
2022/08/26 11:15:58;;;;;;;;;;;30.10;96.20;;;;;;4195183;28;20039;-81
2022/08/26 11:18:04;;;;;;;;;;;30.40;95.30;;;;;;4178340;28;20348;-81
2022/08/26 11:20:06;;;;;;;;;;;30.50;95.20;;;;;;4178112;28;20332;-81
2022/08/26 11:22:23;;;;;;;;;;;30.60;95.90;;;;;;4194527;28;19929;-81
2022/08/26 11:24:38;;;;;;;;;;;30.80;95.60;;;;;;4195721;28;20898;-81
2022/08/26 11:26:40;;;;;;;;;;;30.60;96.40;;;;;;4178072;28;19928;-80
2022/08/26 11:28:57;;;;;;;;;;;30.20;96.30;;;;;;4195632;28;19929;-81
2022/08/26 11:30:59;;;;;;;;;;;29.90;96.30;;;;;;4178096;28;20495;-80
2022/08/26 11:33:01;;;;;;;;;;;29.70;95.80;;;;;;4195598;28;20018;-81
2022/08/26 11:35:06;;;;;;;;;;;29.70;96.60;;;;;;4195460;28;19940;-81
2022/08/26 11:37:12;;;;;;;;;;;29.70;96.50;;;;;;4195795;28;20011;-81
2022/08/26 11:39:18;;;;;;;;;;;29.60;96.20;;;;;;4192669;28;20396;-80
2022/08/26 11:41:23;;;;;;;;;;;29.80;95.50;;;;;;4195343;28;19924;-81
2022/08/26 11:43:26;;;;;;;;;;;30.00;95.90;;;;;;4177353;28;20392;-81
2022/08/26 11:45:30;;;;;;;;;;;30.00;95.80;;;;;;4177040;28;20015;-81
2022/08/26 11:47:32;;;;;;;;;;;29.80;96.60;;;;;;4208802;28;19962;-80
2022/08/26 11:49:36;;;;;;;;;;;29.60;95.90;;;;;;4185391;28;20870;-80
2022/08/26 11:51:38;;;;;;;;;;;29.70;96.00;;;;;;4187936;28;19958;-80
2022/08/26 11:53:45;;;;;;;;;;;29.90;96.00;;;;;;4193512;28;19931;-80
2022/08/26 11:55:49;;;;;;;;;;;29.90;96.00;;;;;;4195482;28;19925;-80
2022/08/26 11:57:53;;;;;;;;;;;29.70;96.10;;;;;;4186721;28;19943;-81
2022/08/26 11:59:55;;;;;;;;;;;29.60;97.20;;;;;;4176916;28;20353;-80
2022/08/26 12:01:58;;;;;;;;;;;29.40;97.10;;;;;;4177238;28;19967;-80
2022/08/26 12:04:01;;;;;;;;;;;29.00;97.20;;;;;;4175307;28;20035;-80
2022/08/26 12:06:23;;;;;;;;;;;29.00;97.40;;;;;;4190009;28;19951;-80
2022/08/26 12:08:31;;;;;;;;;;;28.90;97.50;;;;;;4178368;28;19929;-80
2022/08/26 12:10:33;;;;;;;;;;;28.80;98.40;;;;;;4177122;28;19928;-83
2022/08/26 12:12:41;;;;;;;;;;;28.60;98.20;;;;;;4195364;28;20354;-80